Youngwood, PA

5:37 PM EDT on April 21, 2015 (GMT -0400)
Midway St. Clair | | Change Station
CLOSE
Current Station
Personal Weather Station
Location: Greensburg, PA
Elevation: 1135 ft
Nearby Weather Stations
Active Advisory: Wind Advisory Active Notice: Public Information Statement

Elev 1135 ft 40.27 °N, 79.56 °W | Updated 1 second ago

Overcast
Overcast
55.9 °F
Feels Like 55.9 °F
N
2.0
Wind Variable Wind from SW
Gusts 17.0 mph

Today
High -- | Low -- °F
--% Chance of Precip.
Yesterday
High -- | Low -- °F
Precip. -- in
6:31 AM 8:03 PM
Waxing Crescent, 13% visible
Pressure 29.74 in
Visibility 10.0 miles
Clouds Mostly Cloudy 4000 ft
Dew Point 30 °F
Humidity 37%
Rainfall 0.05 in
Snow Depth Not available.
UV 2 out of 12
Pollen 10.40 out of 12
Air Quality Not available.
Flu Activity Sporadic
METAR KLBE 212050Z 26015G25KT 10SM BKN040 13/M04 A2974

More Conditions Fewer Conditions

Pressure 29.74 in
Visibility 10.0 miles
Clouds Mostly Cloudy 4000 ft
Dew Point 30 °F
Humidity 37%
Rainfall 0.05 in
Snow Depth Not available.
UV 2 out of 12
Pollen 10.40 out of 12
Air Quality Not available.
Flu Activity Sporadic
METAR KLBE 212050Z 26015G25KT 10SM BKN040 13/M04 A2974

More Conditions Fewer Conditions

10-Day Weather Forecast

Almanac

Astronomy

Apr. 21, 2015 Rise Set
Actual Time
Civil Twilight
Nautical Twilight
Astronomical Twilight
Moon
Length of Visible Light
Length of Day
Tomorrow will be .
, % of the Moon is Illuminated

Today's Extremes

State Highs State Lows

Community

WunderPhotos

Upload Photos

1,815,553 photos uploaded!

WunderBlogs® & News

Nearby

Air Quality

  Air Quality AQ Index Pollutant
Not available.

Snow Depth

Station Depth Elevation

Earthquake Activity

City Distance Mag. Time & Date
Minimum magnitude displayed is 2.5.

Coastal Water Temperatures

Place Temperature

Stations

Nearby Weather Stations

Station Location Temp. Windchill Dew Point Humidity Wind Precip. Elev Updated Type
                   
Wind Advisory
Statement as of 1:53 PM EDT on April 21, 2015

... Wind Advisory remains in effect until 7 PM EDT this evening...

* winds... southwest 20 to 25 mph with gusts up to 50 mph.

* Period of strongest winds... through 400 PM.

* Impacts... scattered tree and power line damage can be
expected. Some minor property damage is possible in the
highest gusts. Travel will be difficult for high profile
vehicles.

Precautionary/preparedness actions...

A Wind Advisory is issued when sustained winds of 30 to 39 mph
and/or gusts of 46 to 57 mph are expected. Winds this strong can
make driving difficult... especially for high profile vehicles.
Use extra caution.